Time;durP1;ratioP1;P1;durP2;ratioP2;P2;SDS_P1;SDS_P2;PMS_P1;PMS_P2;Temp;Humidity;BMP_temperature;BMP_pressure;BME280_temperature;BME280_humidity;BME280_pressure;Samples;Min_cycle;Max_cycle;Signal;HPM_P1;HPM_P2
2023/04/08 00:01:08;;;;;;;7.32;3.47;;;6.40;99.90;;;;;;5111627;28;20498;-70
2023/04/08 00:03:34;;;;;;;8.32;3.90;;;6.30;99.90;;;;;;5108820;28;20043;-69
2023/04/08 00:06:01;;;;;;;8.63;4.40;;;6.30;99.90;;;;;;5107885;28;20558;-69
2023/04/08 00:08:27;;;;;;;10.70;4.72;;;6.30;99.90;;;;;;5111303;28;20035;-70
2023/04/08 00:10:53;;;;;;;7.30;3.72;;;6.30;99.90;;;;;;5102288;28;20078;-69
2023/04/08 00:13:18;;;;;;;14.32;4.97;;;6.20;99.90;;;;;;5108689;28;20043;-69
2023/04/08 00:15:44;;;;;;;9.10;4.22;;;6.20;99.90;;;;;;5103588;28;20051;-69
2023/04/08 00:18:10;;;;;;;9.48;4.40;;;6.20;99.90;;;;;;5096202;28;20137;-69
2023/04/08 00:20:36;;;;;;;10.95;4.63;;;6.20;99.90;;;;;;5106166;28;20190;-69
2023/04/08 00:23:01;;;;;;;8.98;4.13;;;6.10;99.90;;;;;;5101694;28;20044;-69
2023/04/08 00:25:27;;;;;;;8.95;3.72;;;6.10;99.90;;;;;;5112001;28;20043;-68
2023/04/08 00:27:52;;;;;;;10.85;4.72;;;6.10;99.90;;;;;;5111996;28;20048;-69
2023/04/08 00:30:18;;;;;;;10.55;4.20;;;6.10;99.90;;;;;;5100033;28;20561;-69
2023/04/08 00:32:45;;;;;;;11.98;4.47;;;6.10;99.90;;;;;;5104603;28;20074;-69
2023/04/08 00:35:11;;;;;;;10.02;4.55;;;6.00;99.90;;;;;;5077416;28;20098;-70
2023/04/08 00:37:37;;;;;;;;;;;6.00;99.90;;;;;;5103609;28;20036;-69
2023/04/08 00:40:03;;;;;;;12.13;4.82;;;6.00;99.90;;;;;;5104174;28;19973;-69
2023/04/08 00:42:29;;;;;;;8.70;4.40;;;6.00;99.90;;;;;;5073581;28;20585;-69
2023/04/08 00:44:55;;;;;;;9.50;4.47;;;5.90;99.90;;;;;;5110746;28;20054;-69
2023/04/08 00:47:21;;;;;;;10.00;4.90;;;5.90;99.90;;;;;;5109839;28;20055;-69
2023/04/08 00:49:48;;;;;;;9.35;4.82;;;5.80;99.90;;;;;;5111151;28;20070;-69
2023/04/08 00:52:14;;;;;;;9.07;4.50;;;5.80;99.90;;;;;;5110608;28;20043;-69
2023/04/08 00:54:41;;;;;;;10.85;4.40;;;5.70;99.90;;;;;;5112101;28;20051;-69
2023/04/08 00:57:07;;;;;;;10.52;4.80;;;5.70;99.90;;;;;;5112265;28;20400;-69
2023/04/08 00:59:34;;;;;;;;;;;5.60;99.90;;;;;;5109509;28;20511;-69
2023/04/08 01:02:12;;;;;;;;;;;5.60;99.90;;;;;;5105414;28;19920;-69
2023/04/08 01:04:38;;;;;;;;;;;5.50;99.90;;;;;;5091386;28;20384;-69
2023/04/08 01:07:21;;;;;;;10.43;4.40;;;5.50;99.90;;;;;;5107625;28;19962;-69
2023/04/08 01:10:00;;;;;;;10.05;4.30;;;5.50;99.90;;;;;;5111178;28;20055;-69
2023/04/08 01:12:29;;;;;;;15.02;5.10;;;5.40;99.90;;;;;;5111485;28;20126;-69
2023/04/08 01:15:06;;;;;;;11.60;5.63;;;5.30;99.90;;;;;;5112053;28;20066;-69
2023/04/08 01:17:33;;;;;;;11.93;5.47;;;5.30;99.90;;;;;;5091403;28;20048;-69
2023/04/08 01:20:00;;;;;;;11.18;4.93;;;5.30;99.90;;;;;;5110248;28;20417;-69
2023/04/08 01:22:34;;;;;;;12.02;5.35;;;5.30;99.90;;;;;;5108433;28;20100;-69
2023/04/08 01:25:06;;;;;;;10.23;4.88;;;5.20;99.90;;;;;;5111863;28;20055;-69
2023/04/08 01:27:34;;;;;;;14.98;6.50;;;5.20;99.90;;;;;;5110930;28;20139;-69
2023/04/08 01:30:03;;;;;;;11.10;5.18;;;5.40;99.90;;;;;;5110901;28;20492;-69
2023/04/08 01:32:30;;;;;;;12.10;5.40;;;5.20;99.90;;;;;;5109493;28;20132;-69
2023/04/08 01:34:57;;;;;;;11.48;5.43;;;5.20;99.90;;;;;;5096383;28;20087;-69
2023/04/08 01:37:25;;;;;;;13.95;5.70;;;5.20;99.90;;;;;;5110099;28;20047;-69
2023/04/08 01:39:52;;;;;;;11.35;5.82;;;5.20;99.90;;;;;;5092189;28;20086;-69
2023/04/08 01:42:19;;;;;;;13.95;5.47;;;5.20;99.90;;;;;;5090490;28;20048;-69
2023/04/08 01:44:45;;;;;;;12.02;5.72;;;5.10;99.90;;;;;;5091529;28;20678;-69
2023/04/08 01:47:13;;;;;;;12.23;5.68;;;5.20;99.90;;;;;;5110488;28;20093;-70
2023/04/08 01:49:39;;;;;;;14.05;5.93;;;5.40;99.90;;;;;;5110895;28;20048;-69
2023/04/08 01:52:08;;;;;;;13.18;5.80;;;5.20;99.90;;;;;;5110336;28;20047;-69
2023/04/08 01:54:34;;;;;;;11.85;5.57;;;5.20;99.90;;;;;;5110779;28;20048;-69
2023/04/08 01:57:05;;;;;;;16.63;6.03;;;5.10;99.90;;;;;;5111364;28;20055;-69
2023/04/08 01:59:33;;;;;;;14.40;5.80;;;5.10;99.90;;;;;;5107682;28;20514;-69
2023/04/08 02:02:00;;;;;;;12.57;6.05;;;5.20;99.90;;;;;;5093652;28;20052;-69
2023/04/08 02:04:26;;;;;;;11.10;5.75;;;5.20;99.90;;;;;;5090008;28;20086;-69
2023/04/08 02:06:52;;;;;;;13.43;5.85;;;5.20;99.90;;;;;;5109424;28;20075;-69
2023/04/08 02:09:17;;;;;;;11.07;6.07;;;5.10;99.90;;;;;;5091288;28;20058;-69
2023/04/08 02:11:43;;;;;;;10.90;5.40;;;5.00;99.90;;;;;;5090357;28;20044;-69
2023/04/08 02:14:09;;;;;;;13.10;5.80;;;5.10;99.90;;;;;;5090196;28;20062;-69
2023/04/08 02:16:54;;;;;;;11.48;5.88;;;5.10;99.90;;;;;;5088918;28;20156;-69
2023/04/08 02:19:29;;;;;;;12.65;6.78;;;5.10;99.90;;;;;;5080205;28;20137;-69
2023/04/08 02:22:01;;;;;;;14.00;6.03;;;5.00;99.90;;;;;;5087005;28;20405;-69
2023/04/08 02:24:28;;;;;;;16.08;6.82;;;5.00;99.90;;;;;;5090558;28;20491;-69
2023/04/08 02:26:55;;;;;;;11.90;5.95;;;5.00;99.90;;;;;;5098042;28;20062;-69
2023/04/08 02:29:22;;;;;;;14.90;6.35;;;4.90;99.90;;;;;;5110212;28;20492;-70
2023/04/08 02:31:49;;;;;;;14.30;7.45;;;4.90;99.90;;;;;;5092847;28;20055;-69
2023/04/08 02:34:17;;;;;;;12.65;6.28;;;4.90;99.90;;;;;;5114664;28;20043;-69
2023/04/08 02:36:44;;;;;;;13.63;6.18;;;4.80;99.90;;;;;;5113916;28;20047;-69
2023/04/08 02:39:10;;;;;;;11.82;6.10;;;4.80;99.90;;;;;;5114194;28;20118;-69
2023/04/08 02:41:36;;;;;;;12.32;6.18;;;4.80;99.90;;;;;;5112553;28;20048;-69
2023/04/08 02:44:02;;;;;;;13.48;5.65;;;4.70;99.90;;;;;;5103152;28;20127;-70
2023/04/08 02:46:27;;;;;;;11.15;6.22;;;4.70;99.90;;;;;;5092798;28;20428;-70
2023/04/08 02:48:53;;;;;;;14.15;6.00;;;4.70;99.90;;;;;;5093408;28;20542;-69
2023/04/08 02:51:19;;;;;;;13.82;6.75;;;4.80;99.90;;;;;;5093315;28;20074;-70
2023/04/08 02:53:44;;;;;;;14.80;6.53;;;4.60;99.90;;;;;;5094455;28;20517;-69
2023/04/08 02:56:10;;;;;;;13.45;6.60;;;4.70;99.90;;;;;;5094604;28;20054;-69
2023/04/08 02:58:36;;;;;;;15.40;6.15;;;4.60;99.90;;;;;;5093751;28;20497;-69
2023/04/08 03:01:02;;;;;;;13.48;6.38;;;4.60;99.90;;;;;;5099253;28;20077;-69
2023/04/08 03:03:28;;;;;;;18.05;6.93;;;4.60;99.90;;;;;;5113020;28;20052;-69
2023/04/08 03:05:55;;;;;;;16.88;6.82;;;4.50;99.90;;;;;;5096988;28;20052;-69
2023/04/08 03:08:21;;;;;;;12.98;6.07;;;4.60;99.90;;;;;;5099881;28;20071;-70
2023/04/08 03:10:48;;;;;;;13.75;6.68;;;4.60;99.90;;;;;;5094187;28;20097;-69
2023/04/08 03:13:14;;;;;;;16.00;6.70;;;4.50;99.90;;;;;;5093784;28;20055;-69
2023/04/08 03:15:40;;;;;;;16.15;6.40;;;4.50;99.90;;;;;;5093676;28;20090;-69
2023/04/08 03:18:06;;;;;;;;;;;4.60;99.90;;;;;;5111108;28;20097;-69
2023/04/08 03:20:32;;;;;;;11.52;5.78;;;4.50;99.90;;;;;;5111040;28;19923;-69
2023/04/08 03:22:57;;;;;;;18.92;7.60;;;4.40;99.90;;;;;;5110657;28;20051;-69
2023/04/08 03:25:23;;;;;;;12.35;5.78;;;4.40;99.90;;;;;;5113610;28;20048;-69
2023/04/08 03:27:49;;;;;;;14.02;6.85;;;4.40;99.90;;;;;;5113647;28;20417;-69
2023/04/08 03:30:15;;;;;;;15.43;7.18;;;4.40;99.90;;;;;;5114103;28;20075;-69
2023/04/08 03:32:41;;;;;;;12.80;6.50;;;4.30;99.90;;;;;;5094425;28;20685;-69
2023/04/08 03:35:07;;;;;;;14.70;6.65;;;4.20;99.90;;;;;;5114120;28;20055;-69
2023/04/08 03:37:33;;;;;;;15.52;6.85;;;4.10;99.90;;;;;;5107996;28;20075;-69
2023/04/08 03:39:59;;;;;;;15.38;7.03;;;4.10;99.90;;;;;;5093272;28;20072;-70
2023/04/08 03:42:25;;;;;;;17.13;7.43;;;4.00;99.90;;;;;;5094404;28;20109;-70
2023/04/08 03:44:50;;;;;;;15.05;7.38;;;4.00;99.90;;;;;;5095921;28;20043;-69
2023/04/08 03:47:16;;;;;;;16.25;7.55;;;4.10;99.90;;;;;;5092352;28;20066;-69
2023/04/08 03:49:42;;;;;;;17.92;8.05;;;4.20;99.90;;;;;;5092772;28;20243;-69
2023/04/08 03:52:07;;;;;;;17.27;7.20;;;4.00;99.90;;;;;;5092459;28;20079;-69
2023/04/08 03:54:33;;;;;;;13.68;7.18;;;3.90;99.90;;;;;;5113112;28;20043;-69
2023/04/08 03:56:59;;;;;;;16.35;7.05;;;3.90;99.90;;;;;;5113411;28;20521;-70
2023/04/08 03:59:24;;;;;;;18.42;7.68;;;3.90;99.90;;;;;;5095623;28;20469;-70
2023/04/08 04:01:52;;;;;;;17.98;7.40;;;4.00;99.90;;;;;;5074253;28;20048;-69
2023/04/08 04:04:18;;;;;;;20.20;8.38;;;3.90;99.90;;;;;;5110676;28;20090;-69
2023/04/08 04:06:43;;;;;;;16.30;7.75;;;3.90;99.90;;;;;;5094847;28;20214;-69
2023/04/08 04:09:10;;;;;;;17.15;8.05;;;3.90;99.90;;;;;;5092922;28;20069;-69
2023/04/08 04:11:35;;;;;;;;;;;3.90;99.90;;;;;;5109362;28;20626;-69
2023/04/08 04:14:01;;;;;;;15.85;7.82;;;3.80;99.90;;;;;;5113206;28;19930;-69
2023/04/08 04:16:27;;;;;;;18.15;8.40;;;3.80;99.90;;;;;;5089946;28;20529;-70
2023/04/08 04:18:53;;;;;;;19.52;8.85;;;3.90;99.90;;;;;;5091985;28;20052;-69
2023/04/08 04:21:18;;;;;;;20.10;8.57;;;3.90;99.90;;;;;;5091518;28;20481;-69
2023/04/08 04:23:44;;;;;;;19.77;8.20;;;3.90;99.90;;;;;;5102966;28;20040;-69
2023/04/08 04:26:10;;;;;;;20.50;8.73;;;4.00;99.90;;;;;;5112461;28;20184;-69
2023/04/08 04:28:36;;;;;;;;;;;3.90;99.90;;;;;;5095453;28;20059;-69
2023/04/08 04:31:02;;;;;;;21.20;8.18;;;3.90;99.90;;;;;;5095437;28;19919;-69
2023/04/08 04:33:28;;;;;;;17.23;7.85;;;3.90;99.90;;;;;;5110714;28;20097;-70
2023/04/08 04:35:53;;;;;;;22.48;9.57;;;3.80;99.90;;;;;;5111935;28;20044;-69
2023/04/08 04:38:19;;;;;;;18.50;8.00;;;3.80;99.90;;;;;;5112627;28;20130;-69
2023/04/08 04:40:45;;;;;;;18.67;8.82;;;3.80;99.90;;;;;;5112271;28;20050;-69
2023/04/08 04:43:10;;;;;;;18.50;8.70;;;3.70;99.90;;;;;;5112525;28;20051;-69
2023/04/08 04:45:36;;;;;;;21.40;9.55;;;3.80;99.90;;;;;;5108981;28;20047;-70
2023/04/08 04:48:02;;;;;;;18.88;8.82;;;3.80;99.90;;;;;;5111644;28;20090;-69
2023/04/08 04:50:28;;;;;;;20.00;8.73;;;3.80;99.90;;;;;;5094342;28;20075;-70
2023/04/08 04:52:54;;;;;;;21.05;8.68;;;3.80;99.90;;;;;;5091425;28;20048;-69
2023/04/08 04:55:21;;;;;;;19.45;8.73;;;3.80;99.90;;;;;;5111968;28;20085;-69
2023/04/08 04:57:47;;;;;;;21.80;7.82;;;3.80;99.90;;;;;;5111771;28;20040;-69
2023/04/08 05:00:13;;;;;;;19.30;8.90;;;4.00;99.90;;;;;;5092850;28;20482;-70
2023/04/08 05:02:39;;;;;;;17.75;8.27;;;3.90;99.90;;;;;;5088945;28;20083;-69
2023/04/08 05:05:05;;;;;;;20.83;8.77;;;4.00;99.90;;;;;;5091839;28;20474;-69
2023/04/08 05:07:35;;;;;;;;;;;4.00;99.90;;;;;;5098564;28;20118;-70
2023/04/08 05:10:01;;;;;;;17.55;8.48;;;4.00;99.90;;;;;;5103376;28;19965;-69
2023/04/08 05:12:26;;;;;;;22.38;10.07;;;4.00;99.90;;;;;;5091658;28;20040;-69
2023/04/08 05:14:52;;;;;;;23.38;9.43;;;4.10;99.90;;;;;;5092087;28;20056;-69
2023/04/08 05:17:18;;;;;;;22.38;8.98;;;4.10;99.90;;;;;;5110856;28;20545;-69
2023/04/08 05:19:43;;;;;;;19.50;8.48;;;4.10;99.90;;;;;;5093823;28;20488;-69
2023/04/08 05:22:09;;;;;;;21.27;9.68;;;4.20;99.90;;;;;;5090520;28;20412;-69
2023/04/08 05:24:35;;;;;;;21.10;8.20;;;4.20;99.90;;;;;;5073240;28;20055;-69
2023/04/08 05:27:01;;;;;;;20.55;9.32;;;4.20;99.90;;;;;;5091353;28;20043;-69
2023/04/08 05:29:27;;;;;;;19.45;9.38;;;4.30;99.90;;;;;;5091439;28;20147;-69
2023/04/08 05:31:52;;;;;;;18.58;9.02;;;4.30;99.90;;;;;;5098951;28;20044;-69
2023/04/08 05:34:21;;;;;;;20.02;8.88;;;4.30;99.90;;;;;;5097229;28;20104;-70
2023/04/08 05:36:50;;;;;;;18.10;8.13;;;4.30;99.90;;;;;;5105797;28;20052;-69
2023/04/08 05:39:17;;;;;;;18.67;7.90;;;4.30;99.90;;;;;;5091335;28;20105;-70
2023/04/08 05:41:43;;;;;;;21.05;8.55;;;4.40;99.90;;;;;;5090678;28;20047;-69
2023/04/08 05:44:10;;;;;;;18.27;8.90;;;4.30;99.90;;;;;;5091516;28;20059;-69
2023/04/08 05:46:37;;;;;;;20.42;9.35;;;4.30;99.90;;;;;;5103228;28;20047;-69
2023/04/08 05:49:03;;;;;;;19.02;9.25;;;4.30;99.90;;;;;;5111019;28;20044;-70
2023/04/08 05:51:29;;;;;;;21.55;9.05;;;4.30;99.90;;;;;;5109476;28;20061;-70
2023/04/08 05:53:54;;;;;;;20.75;8.75;;;4.50;99.90;;;;;;5108688;28;20044;-69
2023/04/08 05:56:20;;;;;;;23.15;10.15;;;4.40;99.90;;;;;;5104432;28;20056;-69
2023/04/08 05:58:46;;;;;;;22.35;9.23;;;4.40;99.90;;;;;;5099923;28;20054;-69
2023/04/08 06:01:12;;;;;;;20.42;9.27;;;4.50;99.90;;;;;;5110679;28;20508;-70
2023/04/08 06:03:38;;;;;;;20.13;8.90;;;4.50;99.90;;;;;;5109714;28;20054;-69
2023/04/08 06:06:10;;;;;;;22.23;8.45;;;4.60;99.90;;;;;;5110715;28;20044;-69
2023/04/08 06:08:35;;;;;;;19.35;8.07;;;4.60;99.90;;;;;;5110459;28;20200;-69
2023/04/08 06:11:03;;;;;;;22.05;8.77;;;4.60;99.90;;;;;;5111220;28;20536;-69
2023/04/08 06:13:28;;;;;;;19.33;8.80;;;4.60;99.90;;;;;;5089454;28;20058;-69
2023/04/08 06:15:54;;;;;;;20.95;9.45;;;4.90;99.90;;;;;;5100999;28;20409;-69
2023/04/08 06:18:20;;;;;;;22.45;9.02;;;4.70;99.90;;;;;;5089688;28;20471;-69
2023/04/08 06:20:45;;;;;;;20.70;8.93;;;4.70;99.90;;;;;;5089188;28;20436;-70
2023/04/08 06:23:11;;;;;;;21.08;8.70;;;4.70;99.90;;;;;;5090561;28;20067;-69
2023/04/08 06:25:37;;;;;;;22.85;9.48;;;4.70;99.90;;;;;;5090305;28;20091;-70
2023/04/08 06:28:03;;;;;;;22.67;9.43;;;4.80;99.90;;;;;;5105789;28;20130;-69
2023/04/08 06:30:29;;;;;;;22.13;9.57;;;4.80;99.90;;;;;;5110622;28;20100;-70
2023/04/08 06:32:54;;;;;;;21.70;9.40;;;4.80;99.90;;;;;;5090903;28;20293;-69
2023/04/08 06:35:20;;;;;;;24.05;9.23;;;4.90;99.90;;;;;;5083977;28;20048;-69
2023/04/08 06:37:46;;;;;;;20.30;9.32;;;5.00;99.90;;;;;;5098246;28;20096;-73
2023/04/08 06:40:11;;;;;;;20.30;9.57;;;5.00;99.90;;;;;;5110491;28;20465;-71
2023/04/08 06:42:39;;;;;;;23.65;9.30;;;5.10;99.90;;;;;;5108969;28;20457;-69
2023/04/08 06:45:06;;;;;;;21.70;9.57;;;5.30;99.90;;;;;;5089385;28;20048;-71
2023/04/08 06:47:32;;;;;;;22.25;9.88;;;5.30;99.90;;;;;;5088567;28;20081;-72
2023/04/08 06:49:58;;;;;;;23.63;10.10;;;5.40;99.90;;;;;;5093513;28;20059;-73
2023/04/08 06:52:25;;;;;;;23.98;10.15;;;5.50;99.90;;;;;;5109378;28;20079;-73
2023/04/08 06:54:50;;;;;;;23.80;9.02;;;5.70;99.90;;;;;;5109783;28;20040;-72
2023/04/08 06:57:16;;;;;;;24.30;10.90;;;5.70;99.90;;;;;;5109985;28;20066;-74
2023/04/08 06:59:42;;;;;;;25.45;10.45;;;5.70;99.90;;;;;;5107891;28;20047;-75
2023/04/08 07:02:07;;;;;;;25.90;10.27;;;5.80;99.90;;;;;;5099450;28;20052;-73
2023/04/08 07:04:33;;;;;;;22.58;10.10;;;5.90;99.90;;;;;;5102886;28;20054;-75
2023/04/08 07:06:59;;;;;;;25.15;10.98;;;5.90;99.90;;;;;;5107392;28;20077;-74
2023/04/08 07:09:24;;;;;;;24.88;9.50;;;6.00;99.90;;;;;;5092525;28;20051;-74
2023/04/08 07:11:50;;;;;;;23.85;10.30;;;6.00;99.90;;;;;;5109995;28;20096;-74
2023/04/08 07:14:16;;;;;;;31.17;11.45;;;6.10;99.90;;;;;;5092534;28;20058;-74
2023/04/08 07:16:41;;;;;;;25.38;11.38;;;6.20;99.90;;;;;;5108817;28;20074;-74
2023/04/08 07:19:07;;;;;;;23.23;9.32;;;6.20;99.90;;;;;;5110156;28;20051;-74
2023/04/08 07:21:32;;;;;;;24.00;10.27;;;6.20;99.90;;;;;;5090797;28;20050;-75
2023/04/08 07:23:58;;;;;;;23.75;10.00;;;6.30;99.90;;;;;;5093298;28;20232;-75
2023/04/08 07:26:24;;;;;;;23.80;10.30;;;6.30;99.90;;;;;;5093885;28;20044;-74
2023/04/08 07:28:50;;;;;;;23.10;10.07;;;6.30;99.90;;;;;;5093167;28;20488;-74
2023/04/08 07:31:17;;;;;;;21.80;9.48;;;6.40;99.90;;;;;;5093205;28;20489;-74
2023/04/08 07:33:44;;;;;;;22.98;9.45;;;6.40;99.90;;;;;;5106080;28;20044;-74
2023/04/08 07:36:11;;;;;;;23.50;10.02;;;6.50;99.90;;;;;;5112866;28;20048;-74
2023/04/08 07:38:38;;;;;;;23.35;10.50;;;6.50;99.90;;;;;;5113833;28;20507;-74
2023/04/08 07:41:03;;;;;;;23.08;10.13;;;6.50;99.90;;;;;;5112493;28;20043;-74
2023/04/08 07:43:38;;;;;;;22.58;9.25;;;6.50;99.90;;;;;;5110050;28;20051;-74
2023/04/08 07:46:05;;;;;;;25.33;9.93;;;6.60;99.90;;;;;;5102780;28;20048;-74
2023/04/08 07:48:31;;;;;;;23.73;10.00;;;6.60;99.90;;;;;;5108619;28;20044;-74
2023/04/08 07:51:01;;;;;;;26.23;9.65;;;6.70;99.90;;;;;;5112249;28;20121;-74
2023/04/08 07:53:27;;;;;;;19.08;8.73;;;6.80;99.90;;;;;;5113776;28;20043;-74
2023/04/08 07:55:53;;;;;;;19.90;9.05;;;6.90;99.90;;;;;;5113124;28;20409;-74
2023/04/08 07:58:18;;;;;;;17.45;8.07;;;6.90;99.90;;;;;;5113511;28;20055;-74
2023/04/08 08:00:44;;;;;;;19.45;8.20;;;6.90;99.90;;;;;;5111470;28;20058;-74
2023/04/08 08:03:09;;;;;;;19.13;8.98;;;7.00;99.90;;;;;;5110545;28;20489;-75
2023/04/08 08:05:36;;;;;;;19.55;8.27;;;7.00;99.90;;;;;;5104065;28;20127;-72
2023/04/08 08:08:02;;;;;;;18.95;8.38;;;7.10;99.90;;;;;;5091841;28;20036;-74
2023/04/08 08:10:28;;;;;;;23.17;9.20;;;7.10;99.90;;;;;;5087310;28;20165;-71
2023/04/08 08:12:53;;;;;;;20.15;9.57;;;7.20;99.90;;;;;;5093326;28;20541;-71
2023/04/08 08:15:19;;;;;;;26.10;9.57;;;7.40;99.90;;;;;;5093193;28;20079;-70
2023/04/08 08:17:45;;;;;;;18.83;9.55;;;7.50;99.90;;;;;;5091134;28;20040;-71
2023/04/08 08:20:11;;;;;;;19.92;9.15;;;7.70;99.90;;;;;;5111588;28;20043;-74
2023/04/08 08:22:38;;;;;;;22.48;9.57;;;7.80;99.90;;;;;;5109372;28;20050;-71
2023/04/08 08:25:04;;;;;;;24.27;8.52;;;7.90;99.90;;;;;;5105554;28;20047;-71
2023/04/08 08:27:33;;;;;;;18.20;8.70;;;8.00;99.90;;;;;;5111527;28;20058;-71
2023/04/08 08:29:58;;;;;;;19.63;8.63;;;8.00;99.90;;;;;;5111155;28;20324;-71
2023/04/08 08:32:24;;;;;;;20.40;8.55;;;8.10;99.90;;;;;;5110782;28;20071;-71
2023/04/08 08:34:50;;;;;;;16.65;7.15;;;8.10;99.90;;;;;;5111644;28;20036;-71
2023/04/08 08:37:15;;;;;;;18.88;8.10;;;8.10;99.90;;;;;;5110640;28;20428;-71
2023/04/08 08:39:41;;;;;;;17.67;7.53;;;8.00;99.90;;;;;;5111742;28;20035;-71
2023/04/08 08:42:26;;;;;;;20.30;8.00;;;8.00;99.90;;;;;;5104493;28;20044;-71
2023/04/08 08:44:53;;;;;;;17.48;8.32;;;7.90;99.90;;;;;;5108893;28;20512;-71
2023/04/08 08:47:19;;;;;;;18.23;8.70;;;8.00;99.90;;;;;;5089517;28;20463;-71
2023/04/08 08:49:46;;;;;;;15.43;6.93;;;8.00;99.90;;;;;;5111051;28;20044;-72
2023/04/08 08:52:15;;;;;;;17.83;7.30;;;8.00;99.90;;;;;;5100483;28;20432;-76
2023/04/08 08:54:41;;;;;;;17.85;8.25;;;8.10;99.90;;;;;;5105956;28;20044;-73
2023/04/08 08:57:19;;;;;;;17.23;7.53;;;8.10;99.90;;;;;;5092228;28;20570;-72
2023/04/08 08:59:46;;;;;;;16.38;7.50;;;8.20;99.90;;;;;;5111220;28;20131;-71
2023/04/08 09:02:26;;;;;;;17.92;7.72;;;8.20;99.90;;;;;;5109604;28;20048;-72
2023/04/08 09:05:02;;;;;;;15.77;7.57;;;8.40;99.90;;;;;;5111291;28;20039;-71
2023/04/08 09:07:30;;;;;;;17.08;7.35;;;8.50;99.90;;;;;;5092677;28;20055;-72
2023/04/08 09:09:57;;;;;;;16.45;6.60;;;8.60;99.90;;;;;;5111805;28;20083;-71
2023/04/08 09:12:24;;;;;;;15.68;7.07;;;8.60;99.90;;;;;;5091558;28;20052;-72
2023/04/08 09:14:50;;;;;;;15.25;7.50;;;8.60;99.90;;;;;;5091351;28;20044;-72
2023/04/08 09:17:31;;;;;;;;;;;8.50;99.90;;;;;;5103321;28;20120;-72
2023/04/08 09:20:13;;;;;;;13.90;6.75;;;8.60;99.90;;;;;;5111565;28;19926;-72
2023/04/08 09:22:56;;;;;;;14.77;6.95;;;8.60;99.90;;;;;;5111059;28;20074;-72
2023/04/08 09:25:24;;;;;;;13.88;6.97;;;8.70;99.90;;;;;;5112132;28;20048;-71
2023/04/08 09:27:51;;;;;;;16.00;7.13;;;8.90;99.90;;;;;;5109062;28;20107;-72
2023/04/08 09:30:16;;;;;;;14.93;7.05;;;9.10;99.90;;;;;;5106876;28;20048;-72
2023/04/08 09:32:50;;;;;;;14.68;6.82;;;9.30;99.90;;;;;;5105149;28;20051;-72
2023/04/08 09:35:17;;;;;;;14.48;7.25;;;9.40;99.90;;;;;;5111448;28;20043;-72
2023/04/08 09:37:43;;;;;;;15.02;7.78;;;9.50;99.90;;;;;;5092582;28;20059;-72
2023/04/08 09:40:09;;;;;;;13.88;7.28;;;9.70;99.90;;;;;;5106453;28;20238;-72
2023/04/08 09:42:37;;;;;;;;;;;9.70;99.90;;;;;;5090959;28;20605;-72
2023/04/08 09:45:05;;;;;;;13.57;6.35;;;9.80;99.90;;;;;;5090751;28;19920;-72
2023/04/08 09:47:37;;;;;;;15.88;7.43;;;9.90;99.90;;;;;;5091078;28;20055;-72
2023/04/08 09:50:07;;;;;;;14.52;7.55;;;9.90;99.90;;;;;;5090727;28;20090;-72
2023/04/08 09:52:41;;;;;;;14.82;7.57;;;10.00;99.90;;;;;;5082303;28;20392;-72
2023/04/08 09:55:13;;;;;;;16.13;8.50;;;10.10;99.90;;;;;;5111044;28;20122;-72
2023/04/08 09:58:10;;;;;;;15.80;7.43;;;10.10;99.90;;;;;;5105715;28;20048;-72
2023/04/08 10:00:45;;;;;;;18.27;8.82;;;10.10;99.90;;;;;;5090871;28;20082;-71
2023/04/08 10:03:36;;;;;;;16.27;7.67;;;10.10;99.90;;;;;;5094176;28;20048;-74
2023/04/08 10:06:02;;;;;;;16.50;8.15;;;10.00;99.90;;;;;;5109420;28;20476;-72
2023/04/08 10:08:30;;;;;;;18.10;9.25;;;10.00;99.90;;;;;;5108327;28;20040;-71
2023/04/08 10:10:56;;;;;;;17.95;8.48;;;10.00;99.90;;;;;;5110024;28;20488;-77
2023/04/08 10:13:23;;;;;;;18.90;8.88;;;10.10;99.90;;;;;;5103802;28;20048;-70
2023/04/08 10:15:49;;;;;;;17.42;8.30;;;10.10;99.90;;;;;;5088864;28;20144;-71
2023/04/08 10:18:17;;;;;;;18.48;8.80;;;10.10;99.90;;;;;;5091003;28;20081;-70
2023/04/08 10:20:45;;;;;;;16.45;8.07;;;10.00;99.90;;;;;;5108392;28;20402;-72
2023/04/08 10:23:16;;;;;;;23.48;9.65;;;9.90;99.90;;;;;;5109035;28;20345;-70
2023/04/08 10:25:44;;;;;;;19.20;8.52;;;9.90;99.90;;;;;;5108030;28;20071;-70
2023/04/08 10:28:12;;;;;;;18.50;8.73;;;10.00;99.90;;;;;;5108059;28;20086;-70
2023/04/08 10:30:46;;;;;;;17.90;8.57;;;10.00;99.90;;;;;;5105299;28;20040;-71
2023/04/08 10:33:21;;;;;;;18.27;8.95;;;10.00;99.90;;;;;;5091626;28;20151;-67
2023/04/08 10:35:51;;;;;;;17.08;8.05;;;10.00;99.90;;;;;;5108010;28;20444;-70
2023/04/08 10:38:18;;;;;;;16.80;8.57;;;10.00;99.90;;;;;;5106757;28;20552;-71
2023/04/08 10:40:44;;;;;;;15.85;7.55;;;10.00;99.90;;;;;;5097550;28;20119;-70
2023/04/08 10:43:12;;;;;;;15.02;7.93;;;10.00;99.90;;;;;;5108335;28;20047;-70
2023/04/08 10:45:39;;;;;;;18.92;8.88;;;10.20;99.90;;;;;;5109320;28;20051;-71
2023/04/08 10:48:12;;;;;;;16.38;8.68;;;10.20;99.90;;;;;;5107974;28;20056;-71
2023/04/08 10:50:37;;;;;;;16.13;7.95;;;10.30;99.90;;;;;;5108827;28;20443;-71
2023/04/08 10:53:04;;;;;;;14.48;7.25;;;10.30;99.90;;;;;;5105636;28;20039;-71
2023/04/08 10:55:31;;;;;;;16.67;8.05;;;10.40;99.90;;;;;;5106961;28;20051;-70
2023/04/08 10:58:07;;;;;;;15.02;7.32;;;10.50;99.90;;;;;;5107823;28;20051;-71
2023/04/08 11:00:38;;;;;;;16.83;7.72;;;10.60;99.90;;;;;;5108427;28;20523;-70
2023/04/08 11:03:06;;;;;;;17.55;7.97;;;10.60;99.90;;;;;;5110259;28;20978;-70
2023/04/08 11:05:33;;;;;;;13.40;6.50;;;10.70;99.90;;;;;;5111681;28;20481;-70
2023/04/08 11:07:59;;;;;;;15.75;7.38;;;10.80;99.90;;;;;;5112162;28;20052;-70
2023/04/08 11:10:25;;;;;;;;;;;10.90;99.90;;;;;;5113691;28;20043;-70
2023/04/08 11:12:55;;;;;;;15.37;7.47;;;11.00;99.90;;;;;;5100866;28;19930;-70
2023/04/08 11:15:23;;;;;;;13.60;7.43;;;11.00;99.90;;;;;;5110024;28;20805;-70
2023/04/08 11:17:50;;;;;;;15.38;7.68;;;11.10;99.90;;;;;;5110409;28;20048;-70
2023/04/08 11:20:16;;;;;;;17.70;8.10;;;11.10;99.90;;;;;;5108319;28;20031;-70
2023/04/08 11:22:43;;;;;;;17.48;7.15;;;11.10;99.90;;;;;;5111471;28;20039;-70
2023/04/08 11:25:10;;;;;;;15.70;7.30;;;11.10;99.90;;;;;;5111952;28;20108;-70
2023/04/08 11:27:38;;;;;;;14.98;6.97;;;11.10;99.90;;;;;;5112237;28;20051;-70
2023/04/08 11:30:05;;;;;;;15.57;7.20;;;11.00;99.90;;;;;;5111932;28;20131;-70
2023/04/08 11:32:31;;;;;;;16.70;7.18;;;11.00;99.90;;;;;;5110391;28;20039;-70
2023/04/08 11:35:01;;;;;;;16.33;7.82;;;11.00;99.90;;;;;;5098400;28;20052;-70
2023/04/08 11:37:39;;;;;;;16.52;7.38;;;10.90;99.90;;;;;;5107524;28;20039;-70
2023/04/08 11:40:10;;;;;;;16.33;7.38;;;10.90;99.90;;;;;;5108782;28;20115;-70
2023/04/08 11:42:36;;;;;;;15.98;7.43;;;10.80;99.90;;;;;;5110987;28;20071;-71
2023/04/08 11:45:10;;;;;;;16.85;7.63;;;10.80;99.90;;;;;;5111004;28;20550;-72
2023/04/08 11:47:36;;;;;;;16.05;7.25;;;10.90;99.90;;;;;;5108510;28;20062;-71
2023/04/08 11:50:02;;;;;;;15.35;7.80;;;10.90;99.90;;;;;;5093402;28;20055;-71
2023/04/08 11:52:48;;;;;;;17.02;7.68;;;10.80;99.90;;;;;;5111410;28;20044;-71
2023/04/08 11:55:24;;;;;;;18.58;8.43;;;10.90;99.90;;;;;;5111838;28;20048;-71
2023/04/08 11:57:51;;;;;;;18.10;8.47;;;10.90;99.90;;;;;;5093441;28;20109;-75
2023/04/08 12:00:18;;;;;;;18.20;8.15;;;10.90;99.90;;;;;;5094591;28;20127;-71
2023/04/08 12:02:45;;;;;;;15.63;8.02;;;10.90;99.90;;;;;;5111629;28;20055;-71
2023/04/08 12:05:11;;;;;;;16.70;7.95;;;10.80;99.90;;;;;;5093594;28;20055;-71
2023/04/08 12:07:37;;;;;;;17.05;8.55;;;10.80;99.90;;;;;;5111963;28;20043;-71
2023/04/08 12:10:03;;;;;;;18.20;8.10;;;10.80;99.90;;;;;;5113158;28;20485;-71
2023/04/08 12:12:28;;;;;;;17.48;8.38;;;10.80;99.90;;;;;;5113262;28;20043;-70
2023/04/08 12:14:54;;;;;;;19.73;9.07;;;10.70;99.90;;;;;;5078567;28;20043;-70
2023/04/08 12:17:20;;;;;;;16.17;7.65;;;10.70;99.90;;;;;;5102896;28;20176;-71
2023/04/08 12:19:45;;;;;;;18.60;8.40;;;10.70;99.90;;;;;;5106362;28;20044;-71
2023/04/08 12:22:11;;;;;;;16.52;7.03;;;10.60;99.90;;;;;;5091182;28;20044;-71
2023/04/08 12:24:37;;;;;;;17.98;8.13;;;10.60;99.90;;;;;;5093152;28;20400;-70
2023/04/08 12:27:03;;;;;;;19.65;8.77;;;10.70;99.90;;;;;;5092686;28;20043;-71
2023/04/08 12:29:29;;;;;;;20.05;8.90;;;10.60;99.90;;;;;;5074500;28;20516;-71
2023/04/08 12:31:55;;;;;;;16.88;7.85;;;10.60;99.90;;;;;;5101370;28;20054;-71
2023/04/08 12:34:21;;;;;;;19.25;8.73;;;10.60;99.90;;;;;;5111888;28;20052;-71
2023/04/08 12:36:48;;;;;;;17.83;8.52;;;10.60;99.90;;;;;;5109441;28;20043;-70
2023/04/08 12:39:14;;;;;;;21.25;8.88;;;10.60;99.90;;;;;;5112357;28;20477;-71
2023/04/08 12:41:40;;;;;;;18.35;9.48;;;10.60;99.90;;;;;;5094939;28;20119;-71
2023/04/08 12:44:06;;;;;;;17.80;8.35;;;10.60;99.90;;;;;;5092083;28;20044;-71
2023/04/08 12:46:32;;;;;;;22.75;9.32;;;10.60;99.90;;;;;;5091489;28;20044;-71
2023/04/08 12:48:58;;;;;;;23.00;10.05;;;10.60;99.90;;;;;;5091833;28;20055;-71